sensor_id;sensor_type;location;lat;lon;timestamp;temperature;humidity
4759;DHT22;2393;50.560;12.636;2023-06-10T00:00:02;13.30;99.90
4759;DHT22;2393;50.560;12.636;2023-06-10T00:02:38;13.30;99.90
4759;DHT22;2393;50.560;12.636;2023-06-10T00:05:07;13.30;99.90
4759;DHT22;2393;50.560;12.636;2023-06-10T00:07:36;13.30;99.90
4759;DHT22;2393;50.560;12.636;2023-06-10T00:10:06;13.20;99.90
4759;DHT22;2393;50.560;12.636;2023-06-10T00:12:34;13.20;99.90
4759;DHT22;2393;50.560;12.636;2023-06-10T00:15:07;13.10;99.90
4759;DHT22;2393;50.560;12.636;2023-06-10T00:17:36;13.00;99.90
4759;DHT22;2393;50.560;12.636;2023-06-10T00:20:08;13.00;99.90
4759;DHT22;2393;50.560;12.636;2023-06-10T00:22:38;13.00;99.90
4759;DHT22;2393;50.560;12.636;2023-06-10T00:25:09;13.00;99.90
4759;DHT22;2393;50.560;12.636;2023-06-10T00:27:37;13.00;99.90
4759;DHT22;2393;50.560;12.636;2023-06-10T00:30:08;13.00;99.90
4759;DHT22;2393;50.560;12.636;2023-06-10T00:32:37;12.90;99.90
4759;DHT22;2393;50.560;12.636;2023-06-10T00:35:06;12.90;99.90
4759;DHT22;2393;50.560;12.636;2023-06-10T00:37:35;12.90;99.90
4759;DHT22;2393;50.560;12.636;2023-06-10T00:40:04;12.80;99.90
4759;DHT22;2393;50.560;12.636;2023-06-10T00:42:32;12.80;99.90
4759;DHT22;2393;50.560;12.636;2023-06-10T00:45:00;12.80;99.90
4759;DHT22;2393;50.560;12.636;2023-06-10T00:47:30;12.80;99.90
4759;DHT22;2393;50.560;12.636;2023-06-10T00:49:59;12.80;99.90
4759;DHT22;2393;50.560;12.636;2023-06-10T00:52:28;12.80;99.90
4759;DHT22;2393;50.560;12.636;2023-06-10T00:54:57;12.80;99.90
4759;DHT22;2393;50.560;12.636;2023-06-10T00:57:25;12.80;99.90
4759;DHT22;2393;50.560;12.636;2023-06-10T00:59:54;12.80;99.90
4759;DHT22;2393;50.560;12.636;2023-06-10T01:02:22;12.80;99.90
4759;DHT22;2393;50.560;12.636;2023-06-10T01:04:51;12.80;99.90
4759;DHT22;2393;50.560;12.636;2023-06-10T01:07:25;12.80;99.90
4759;DHT22;2393;50.560;12.636;2023-06-10T01:09:57;12.80;99.90
4759;DHT22;2393;50.560;12.636;2023-06-10T01:12:31;12.80;99.90
4759;DHT22;2393;50.560;12.636;2023-06-10T01:15:02;12.70;99.90
4759;DHT22;2393;50.560;12.636;2023-06-10T01:17:30;12.60;99.90
4759;DHT22;2393;50.560;12.636;2023-06-10T01:20:00;12.60;99.90
4759;DHT22;2393;50.560;12.636;2023-06-10T01:22:40;12.50;99.90
4759;DHT22;2393;50.560;12.636;2023-06-10T01:25:08;12.40;99.90
4759;DHT22;2393;50.560;12.636;2023-06-10T01:27:38;12.40;99.90
4759;DHT22;2393;50.560;12.636;2023-06-10T01:30:14;12.40;99.90
4759;DHT22;2393;50.560;12.636;2023-06-10T01:32:46;12.40;99.90
4759;DHT22;2393;50.560;12.636;2023-06-10T01:35:17;12.50;99.90
4759;DHT22;2393;50.560;12.636;2023-06-10T01:37:46;12.50;99.90
4759;DHT22;2393;50.560;12.636;2023-06-10T01:40:16;12.50;99.90
4759;DHT22;2393;50.560;12.636;2023-06-10T01:42:44;12.50;99.90
4759;DHT22;2393;50.560;12.636;2023-06-10T01:45:13;12.40;99.90
4759;DHT22;2393;50.560;12.636;2023-06-10T01:47:40;12.40;99.90
4759;DHT22;2393;50.560;12.636;2023-06-10T01:50:09;12.30;99.90
4759;DHT22;2393;50.560;12.636;2023-06-10T01:52:37;12.30;99.90
4759;DHT22;2393;50.560;12.636;2023-06-10T01:55:07;12.20;99.90
4759;DHT22;2393;50.560;12.636;2023-06-10T01:57:36;12.10;99.90
4759;DHT22;2393;50.560;12.636;2023-06-10T02:00:05;12.10;99.90
4759;DHT22;2393;50.560;12.636;2023-06-10T02:02:41;12.10;99.90
4759;DHT22;2393;50.560;12.636;2023-06-10T02:05:09;12.00;99.90
4759;DHT22;2393;50.560;12.636;2023-06-10T02:07:37;12.00;99.90
4759;DHT22;2393;50.560;12.636;2023-06-10T02:10:08;12.00;99.90
4759;DHT22;2393;50.560;12.636;2023-06-10T02:12:36;12.00;99.90
4759;DHT22;2393;50.560;12.636;2023-06-10T02:15:04;12.00;99.90
4759;DHT22;2393;50.560;12.636;2023-06-10T02:17:33;12.00;99.90
4759;DHT22;2393;50.560;12.636;2023-06-10T02:20:01;12.00;99.90
4759;DHT22;2393;50.560;12.636;2023-06-10T02:22:33;11.90;99.90
4759;DHT22;2393;50.560;12.636;2023-06-10T02:25:01;11.90;99.90
4759;DHT22;2393;50.560;12.636;2023-06-10T02:27:32;11.90;99.90
4759;DHT22;2393;50.560;12.636;2023-06-10T02:30:00;11.90;99.90
4759;DHT22;2393;50.560;12.636;2023-06-10T02:32:31;11.90;99.90
4759;DHT22;2393;50.560;12.636;2023-06-10T02:34:59;11.80;99.90
4759;DHT22;2393;50.560;12.636;2023-06-10T02:37:28;11.80;99.90
4759;DHT22;2393;50.560;12.636;2023-06-10T02:39:57;11.70;99.90
4759;DHT22;2393;50.560;12.636;2023-06-10T02:42:26;11.70;99.90
4759;DHT22;2393;50.560;12.636;2023-06-10T02:44:55;11.70;99.90
4759;DHT22;2393;50.560;12.636;2023-06-10T02:47:37;11.70;99.90
4759;DHT22;2393;50.560;12.636;2023-06-10T02:50:07;11.60;99.90
4759;DHT22;2393;50.560;12.636;2023-06-10T02:52:42;11.70;99.90
4759;DHT22;2393;50.560;12.636;2023-06-10T02:55:10;11.70;99.90
4759;DHT22;2393;50.560;12.636;2023-06-10T02:57:42;11.70;99.90
4759;DHT22;2393;50.560;12.636;2023-06-10T03:00:12;11.70;99.90
4759;DHT22;2393;50.560;12.636;2023-06-10T03:02:42;11.70;99.90
4759;DHT22;2393;50.560;12.636;2023-06-10T03:05:13;11.70;99.90
4759;DHT22;2393;50.560;12.636;2023-06-10T03:07:45;11.70;99.90
4759;DHT22;2393;50.560;12.636;2023-06-10T03:10:15;11.70;99.90
4759;DHT22;2393;50.560;12.636;2023-06-10T03:12:43;11.80;99.90
4759;DHT22;2393;50.560;12.636;2023-06-10T03:15:14;11.80;99.90
4759;DHT22;2393;50.560;12.636;2023-06-10T03:17:42;11.80;99.90
4759;DHT22;2393;50.560;12.636;2023-06-10T03:20:11;11.90;99.90
4759;DHT22;2393;50.560;12.636;2023-06-10T03:22:43;11.90;99.90
4759;DHT22;2393;50.560;12.636;2023-06-10T03:25:12;12.00;99.90
4759;DHT22;2393;50.560;12.636;2023-06-10T03:27:43;12.00;99.90
4759;DHT22;2393;50.560;12.636;2023-06-10T03:30:14;12.00;99.90
4759;DHT22;2393;50.560;12.636;2023-06-10T03:32:44;12.00;99.90
4759;DHT22;2393;50.560;12.636;2023-06-10T03:35:15;12.00;99.90
4759;DHT22;2393;50.560;12.636;2023-06-10T03:37:44;12.00;99.90
4759;DHT22;2393;50.560;12.636;2023-06-10T03:40:12;12.00;99.90
4759;DHT22;2393;50.560;12.636;2023-06-10T03:42:43;12.10;99.90
4759;DHT22;2393;50.560;12.636;2023-06-10T03:45:15;12.10;99.90
4759;DHT22;2393;50.560;12.636;2023-06-10T03:47:45;12.10;99.90
4759;DHT22;2393;50.560;12.636;2023-06-10T03:50:17;12.10;99.90
4759;DHT22;2393;50.560;12.636;2023-06-10T03:52:45;12.20;99.90
4759;DHT22;2393;50.560;12.636;2023-06-10T03:55:14;12.20;99.90
4759;DHT22;2393;50.560;12.636;2023-06-10T03:57:44;12.20;99.90
4759;DHT22;2393;50.560;12.636;2023-06-10T04:00:15;12.20;99.90
4759;DHT22;2393;50.560;12.636;2023-06-10T04:02:44;12.20;99.90
4759;DHT22;2393;50.560;12.636;2023-06-10T04:05:28;12.20;99.90
4759;DHT22;2393;50.560;12.636;2023-06-10T04:07:57;12.10;99.90
4759;DHT22;2393;50.560;12.636;2023-06-10T04:10:26;12.00;99.90
4759;DHT22;2393;50.560;12.636;2023-06-10T04:12:55;12.00;99.90
4759;DHT22;2393;50.560;12.636;2023-06-10T04:15:27;12.00;99.90
4759;DHT22;2393;50.560;12.636;2023-06-10T04:17:56;12.00;99.90
4759;DHT22;2393;50.560;12.636;2023-06-10T04:20:26;12.00;99.90
4759;DHT22;2393;50.560;12.636;2023-06-10T04:22:54;12.00;99.90
4759;DHT22;2393;50.560;12.636;2023-06-10T04:25:22;12.00;99.90
4759;DHT22;2393;50.560;12.636;2023-06-10T04:27:51;12.10;99.90
4759;DHT22;2393;50.560;12.636;2023-06-10T04:30:19;12.20;99.90
4759;DHT22;2393;50.560;12.636;2023-06-10T04:32:49;12.30;99.90
4759;DHT22;2393;50.560;12.636;2023-06-10T04:35:19;12.40;99.90
4759;DHT22;2393;50.560;12.636;2023-06-10T04:37:47;12.60;99.90
4759;DHT22;2393;50.560;12.636;2023-06-10T04:40:16;12.80;99.90
4759;DHT22;2393;50.560;12.636;2023-06-10T04:42:46;13.00;99.90
4759;DHT22;2393;50.560;12.636;2023-06-10T04:45:14;13.20;99.90
4759;DHT22;2393;50.560;12.636;2023-06-10T04:47:42;13.60;99.90
4759;DHT22;2393;50.560;12.636;2023-06-10T04:50:12;13.90;99.90
4759;DHT22;2393;50.560;12.636;2023-06-10T04:52:40;14.20;99.90
4759;DHT22;2393;50.560;12.636;2023-06-10T04:55:09;14.50;99.90
4759;DHT22;2393;50.560;12.636;2023-06-10T04:57:38;14.80;99.90
4759;DHT22;2393;50.560;12.636;2023-06-10T05:00:07;15.10;99.90
4759;DHT22;2393;50.560;12.636;2023-06-10T05:02:35;15.40;99.90
4759;DHT22;2393;50.560;12.636;2023-06-10T05:05:03;15.70;99.90
4759;DHT22;2393;50.560;12.636;2023-06-10T05:07:32;16.00;99.90
4759;DHT22;2393;50.560;12.636;2023-06-10T05:10:00;16.30;99.90
4759;DHT22;2393;50.560;12.636;2023-06-10T05:12:29;16.60;99.90
4759;DHT22;2393;50.560;12.636;2023-06-10T05:14:57;16.90;99.90
4759;DHT22;2393;50.560;12.636;2023-06-10T05:17:25;17.20;99.90
4759;DHT22;2393;50.560;12.636;2023-06-10T05:19:54;17.50;99.90
4759;DHT22;2393;50.560;12.636;2023-06-10T05:22:22;17.80;99.90
4759;DHT22;2393;50.560;12.636;2023-06-10T05:24:53;18.10;99.90
4759;DHT22;2393;50.560;12.636;2023-06-10T05:27:21;18.40;99.90
4759;DHT22;2393;50.560;12.636;2023-06-10T05:29:49;18.70;99.90
4759;DHT22;2393;50.560;12.636;2023-06-10T05:32:18;18.90;99.90
4759;DHT22;2393;50.560;12.636;2023-06-10T05:34:47;19.10;99.90
4759;DHT22;2393;50.560;12.636;2023-06-10T05:37:15;19.30;99.90
4759;DHT22;2393;50.560;12.636;2023-06-10T05:39:44;19.40;99.90
4759;DHT22;2393;50.560;12.636;2023-06-10T05:42:13;19.60;99.90
4759;DHT22;2393;50.560;12.636;2023-06-10T05:44:41;19.70;99.90
4759;DHT22;2393;50.560;12.636;2023-06-10T05:47:09;20.00;99.90
4759;DHT22;2393;50.560;12.636;2023-06-10T05:49:37;20.10;99.90
4759;DHT22;2393;50.560;12.636;2023-06-10T05:52:06;20.40;99.90
4759;DHT22;2393;50.560;12.636;2023-06-10T05:54:35;20.60;99.90
4759;DHT22;2393;50.560;12.636;2023-06-10T05:57:03;20.80;99.90
4759;DHT22;2393;50.560;12.636;2023-06-10T05:59:33;21.10;99.90
4759;DHT22;2393;50.560;12.636;2023-06-10T06:02:02;21.30;99.90
4759;DHT22;2393;50.560;12.636;2023-06-10T06:04:31;21.60;99.90
4759;DHT22;2393;50.560;12.636;2023-06-10T06:06:59;21.80;99.90
4759;DHT22;2393;50.560;12.636;2023-06-10T06:09:27;22.00;99.90
4759;DHT22;2393;50.560;12.636;2023-06-10T06:11:55;22.20;99.90
4759;DHT22;2393;50.560;12.636;2023-06-10T06:14:23;22.50;99.90
4759;DHT22;2393;50.560;12.636;2023-06-10T06:16:52;22.80;99.90
4759;DHT22;2393;50.560;12.636;2023-06-10T06:19:20;22.70;99.90
4759;DHT22;2393;50.560;12.636;2023-06-10T06:21:48;22.90;99.90
4759;DHT22;2393;50.560;12.636;2023-06-10T06:24:16;23.00;99.90
4759;DHT22;2393;50.560;12.636;2023-06-10T06:26:44;23.30;99.90
4759;DHT22;2393;50.560;12.636;2023-06-10T06:29:12;23.60;99.90
4759;DHT22;2393;50.560;12.636;2023-06-10T06:31:40;23.80;99.90
4759;DHT22;2393;50.560;12.636;2023-06-10T06:34:10;24.20;99.90
4759;DHT22;2393;50.560;12.636;2023-06-10T06:36:42;24.50;99.90
4759;DHT22;2393;50.560;12.636;2023-06-10T06:39:10;24.80;99.90
4759;DHT22;2393;50.560;12.636;2023-06-10T06:41:38;25.00;99.90
4759;DHT22;2393;50.560;12.636;2023-06-10T06:44:07;25.20;99.90
4759;DHT22;2393;50.560;12.636;2023-06-10T06:46:38;25.40;99.90
4759;DHT22;2393;50.560;12.636;2023-06-10T06:49:06;25.70;99.90
4759;DHT22;2393;50.560;12.636;2023-06-10T06:51:36;26.00;99.90
4759;DHT22;2393;50.560;12.636;2023-06-10T06:54:04;26.20;99.90
4759;DHT22;2393;50.560;12.636;2023-06-10T06:56:32;26.30;99.90
4759;DHT22;2393;50.560;12.636;2023-06-10T06:59:00;26.00;99.90
4759;DHT22;2393;50.560;12.636;2023-06-10T07:01:28;26.10;99.90
4759;DHT22;2393;50.560;12.636;2023-06-10T07:03:56;26.30;99.90
4759;DHT22;2393;50.560;12.636;2023-06-10T07:06:24;26.40;99.90
4759;DHT22;2393;50.560;12.636;2023-06-10T07:08:54;26.50;99.90
4759;DHT22;2393;50.560;12.636;2023-06-10T07:11:22;26.30;99.90
4759;DHT22;2393;50.560;12.636;2023-06-10T07:13:50;26.40;99.90
4759;DHT22;2393;50.560;12.636;2023-06-10T07:16:18;26.50;99.90
4759;DHT22;2393;50.560;12.636;2023-06-10T07:18:47;26.60;99.90
4759;DHT22;2393;50.560;12.636;2023-06-10T07:21:15;26.90;99.90
4759;DHT22;2393;50.560;12.636;2023-06-10T07:23:44;27.20;99.90
4759;DHT22;2393;50.560;12.636;2023-06-10T07:26:13;27.40;99.90
4759;DHT22;2393;50.560;12.636;2023-06-10T07:28:41;27.50;99.90
4759;DHT22;2393;50.560;12.636;2023-06-10T07:31:09;27.80;99.90
4759;DHT22;2393;50.560;12.636;2023-06-10T07:33:38;27.90;99.90
4759;DHT22;2393;50.560;12.636;2023-06-10T07:36:07;28.00;99.90
4759;DHT22;2393;50.560;12.636;2023-06-10T07:38:35;28.20;99.90
4759;DHT22;2393;50.560;12.636;2023-06-10T07:41:03;28.50;99.90
4759;DHT22;2393;50.560;12.636;2023-06-10T07:43:32;28.70;99.90
4759;DHT22;2393;50.560;12.636;2023-06-10T07:46:00;28.80;99.90
4759;DHT22;2393;50.560;12.636;2023-06-10T07:48:28;28.50;99.90
4759;DHT22;2393;50.560;12.636;2023-06-10T07:50:56;28.40;99.90
4759;DHT22;2393;50.560;12.636;2023-06-10T07:53:24;28.40;99.90
4759;DHT22;2393;50.560;12.636;2023-06-10T07:55:52;28.50;99.90
4759;DHT22;2393;50.560;12.636;2023-06-10T07:58:20;28.80;99.90
4759;DHT22;2393;50.560;12.636;2023-06-10T08:00:50;29.00;99.90
4759;DHT22;2393;50.560;12.636;2023-06-10T08:03:18;29.30;99.90
4759;DHT22;2393;50.560;12.636;2023-06-10T08:05:47;29.50;99.90
4759;DHT22;2393;50.560;12.636;2023-06-10T08:08:15;29.60;99.90
4759;DHT22;2393;50.560;12.636;2023-06-10T08:10:43;29.60;99.90
4759;DHT22;2393;50.560;12.636;2023-06-10T08:13:11;29.50;99.90
4759;DHT22;2393;50.560;12.636;2023-06-10T08:15:39;29.30;99.90
4759;DHT22;2393;50.560;12.636;2023-06-10T08:18:08;29.20;99.90
4759;DHT22;2393;50.560;12.636;2023-06-10T08:20:36;29.00;99.90
4759;DHT22;2393;50.560;12.636;2023-06-10T08:23:04;28.30;99.90
4759;DHT22;2393;50.560;12.636;2023-06-10T08:25:32;28.00;99.90
4759;DHT22;2393;50.560;12.636;2023-06-10T08:28:00;27.90;99.90
4759;DHT22;2393;50.560;12.636;2023-06-10T08:30:28;27.80;99.90
4759;DHT22;2393;50.560;12.636;2023-06-10T08:32:57;27.60;99.90
4759;DHT22;2393;50.560;12.636;2023-06-10T08:35:26;27.80;99.90
4759;DHT22;2393;50.560;12.636;2023-06-10T08:37:54;27.90;99.90
4759;DHT22;2393;50.560;12.636;2023-06-10T08:40:22;28.10;99.90
4759;DHT22;2393;50.560;12.636;2023-06-10T08:42:56;28.10;99.90
4759;DHT22;2393;50.560;12.636;2023-06-10T08:45:30;28.20;99.90
4759;DHT22;2393;50.560;12.636;2023-06-10T08:47:59;27.70;99.90
4759;DHT22;2393;50.560;12.636;2023-06-10T08:50:29;27.30;99.90
4759;DHT22;2393;50.560;12.636;2023-06-10T08:52:58;27.20;99.90
4759;DHT22;2393;50.560;12.636;2023-06-10T08:55:30;27.00;99.90
4759;DHT22;2393;50.560;12.636;2023-06-10T08:57:59;26.70;99.90
4759;DHT22;2393;50.560;12.636;2023-06-10T09:00:28;26.50;99.90
4759;DHT22;2393;50.560;12.636;2023-06-10T09:02:57;26.50;99.90
4759;DHT22;2393;50.560;12.636;2023-06-10T09:05:33;26.00;99.90
4759;DHT22;2393;50.560;12.636;2023-06-10T09:08:04;26.30;99.90
4759;DHT22;2393;50.560;12.636;2023-06-10T09:10:33;26.20;99.90
4759;DHT22;2393;50.560;12.636;2023-06-10T09:13:01;26.20;99.90
4759;DHT22;2393;50.560;12.636;2023-06-10T09:15:29;26.00;99.90
4759;DHT22;2393;50.560;12.636;2023-06-10T09:17:58;25.90;99.90
4759;DHT22;2393;50.560;12.636;2023-06-10T09:20:26;25.80;99.90
4759;DHT22;2393;50.560;12.636;2023-06-10T09:22:55;25.90;99.90
4759;DHT22;2393;50.560;12.636;2023-06-10T09:25:34;26.20;99.90
4759;DHT22;2393;50.560;12.636;2023-06-10T09:28:04;26.20;99.90
4759;DHT22;2393;50.560;12.636;2023-06-10T09:30:33;26.00;99.90
4759;DHT22;2393;50.560;12.636;2023-06-10T09:33:10;25.90;99.90
4759;DHT22;2393;50.560;12.636;2023-06-10T09:35:45;25.60;99.90
4759;DHT22;2393;50.560;12.636;2023-06-10T09:38:19;25.40;99.90
4759;DHT22;2393;50.560;12.636;2023-06-10T09:40:51;25.00;99.90
4759;DHT22;2393;50.560;12.636;2023-06-10T09:43:19;24.30;99.90
4759;DHT22;2393;50.560;12.636;2023-06-10T09:45:48;24.00;99.90
4759;DHT22;2393;50.560;12.636;2023-06-10T09:48:16;24.00;99.90
4759;DHT22;2393;50.560;12.636;2023-06-10T09:50:45;24.30;99.90
4759;DHT22;2393;50.560;12.636;2023-06-10T09:53:17;24.60;99.90
4759;DHT22;2393;50.560;12.636;2023-06-10T09:55:45;24.70;99.90
4759;DHT22;2393;50.560;12.636;2023-06-10T09:58:14;24.60;99.90
4759;DHT22;2393;50.560;12.636;2023-06-10T10:00:42;24.50;99.90
4759;DHT22;2393;50.560;12.636;2023-06-10T10:03:10;24.40;99.90
4759;DHT22;2393;50.560;12.636;2023-06-10T10:05:49;24.10;99.90
4759;DHT22;2393;50.560;12.636;2023-06-10T10:08:19;23.90;99.90
4759;DHT22;2393;50.560;12.636;2023-06-10T10:10:47;23.70;99.90
4759;DHT22;2393;50.560;12.636;2023-06-10T10:13:15;23.40;99.90
4759;DHT22;2393;50.560;12.636;2023-06-10T10:15:45;23.10;99.90
4759;DHT22;2393;50.560;12.636;2023-06-10T10:18:14;22.80;99.90
4759;DHT22;2393;50.560;12.636;2023-06-10T10:20:47;22.60;99.90
4759;DHT22;2393;50.560;12.636;2023-06-10T10:23:26;22.30;99.90
4759;DHT22;2393;50.560;12.636;2023-06-10T10:25:59;22.10;99.90
4759;DHT22;2393;50.560;12.636;2023-06-10T10:28:37;22.00;99.90
4759;DHT22;2393;50.560;12.636;2023-06-10T10:31:09;21.80;99.90
4759;DHT22;2393;50.560;12.636;2023-06-10T10:33:45;21.70;99.90
4759;DHT22;2393;50.560;12.636;2023-06-10T10:36:15;21.70;99.90
4759;DHT22;2393;50.560;12.636;2023-06-10T10:38:45;21.70;99.90
4759;DHT22;2393;50.560;12.636;2023-06-10T10:41:19;21.60;99.90
4759;DHT22;2393;50.560;12.636;2023-06-10T10:43:48;21.60;99.90
4759;DHT22;2393;50.560;12.636;2023-06-10T10:46:18;21.60;99.90
4759;DHT22;2393;50.560;12.636;2023-06-10T10:48:52;21.80;99.90
4759;DHT22;2393;50.560;12.636;2023-06-10T10:51:22;21.90;99.90
4759;DHT22;2393;50.560;12.636;2023-06-10T10:54:12;21.90;99.90
4759;DHT22;2393;50.560;12.636;2023-06-10T10:57:09;22.30;99.90
4759;DHT22;2393;50.560;12.636;2023-06-10T10:59:52;22.60;99.90
4759;DHT22;2393;50.560;12.636;2023-06-10T11:02:41;22.70;99.90
4759;DHT22;2393;50.560;12.636;2023-06-10T11:05:12;22.50;99.90
4759;DHT22;2393;50.560;12.636;2023-06-10T11:07:52;22.40;99.90
4759;DHT22;2393;50.560;12.636;2023-06-10T11:10:29;22.00;99.90
4759;DHT22;2393;50.560;12.636;2023-06-10T11:12:57;22.00;99.90
4759;DHT22;2393;50.560;12.636;2023-06-10T11:15:27;22.10;99.90
4759;DHT22;2393;50.560;12.636;2023-06-10T11:18:19;22.00;99.90
4759;DHT22;2393;50.560;12.636;2023-06-10T11:20:58;21.90;99.90
4759;DHT22;2393;50.560;12.636;2023-06-10T11:23:42;22.00;99.90
4759;DHT22;2393;50.560;12.636;2023-06-10T11:26:14;21.70;99.90
4759;DHT22;2393;50.560;12.636;2023-06-10T11:29:07;21.60;99.90
4759;DHT22;2393;50.560;12.636;2023-06-10T11:31:43;21.80;99.90
4759;DHT22;2393;50.560;12.636;2023-06-10T11:34:13;21.90;99.90
4759;DHT22;2393;50.560;12.636;2023-06-10T11:36:42;22.10;99.90
4759;DHT22;2393;50.560;12.636;2023-06-10T11:39:12;22.30;99.90
4759;DHT22;2393;50.560;12.636;2023-06-10T11:41:42;22.60;99.90
4759;DHT22;2393;50.560;12.636;2023-06-10T11:44:11;22.90;99.90
4759;DHT22;2393;50.560;12.636;2023-06-10T11:46:43;23.40;99.90
4759;DHT22;2393;50.560;12.636;2023-06-10T11:49:12;23.90;99.90
4759;DHT22;2393;50.560;12.636;2023-06-10T11:51:41;24.40;99.90
4759;DHT22;2393;50.560;12.636;2023-06-10T11:54:16;24.70;99.90
4759;DHT22;2393;50.560;12.636;2023-06-10T11:56:46;25.00;99.90
4759;DHT22;2393;50.560;12.636;2023-06-10T11:59:15;25.30;99.90
4759;DHT22;2393;50.560;12.636;2023-06-10T12:01:44;25.40;99.90
4759;DHT22;2393;50.560;12.636;2023-06-10T12:04:14;25.60;99.90
4759;DHT22;2393;50.560;12.636;2023-06-10T12:06:45;25.80;99.90
4759;DHT22;2393;50.560;12.636;2023-06-10T12:09:18;25.80;99.90
4759;DHT22;2393;50.560;12.636;2023-06-10T12:11:51;25.70;99.90
4759;DHT22;2393;50.560;12.636;2023-06-10T12:14:51;25.70;99.90
4759;DHT22;2393;50.560;12.636;2023-06-10T12:17:22;25.70;99.90
4759;DHT22;2393;50.560;12.636;2023-06-10T12:19:51;26.00;99.90
4759;DHT22;2393;50.560;12.636;2023-06-10T12:22:19;26.30;99.90
4759;DHT22;2393;50.560;12.636;2023-06-10T12:24:58;26.40;99.90
4759;DHT22;2393;50.560;12.636;2023-06-10T12:27:29;26.40;99.90
4759;DHT22;2393;50.560;12.636;2023-06-10T12:29:58;26.50;99.90
4759;DHT22;2393;50.560;12.636;2023-06-10T12:32:42;26.60;99.90
4759;DHT22;2393;50.560;12.636;2023-06-10T12:35:15;26.60;99.90
4759;DHT22;2393;50.560;12.636;2023-06-10T12:37:54;26.50;99.90
4759;DHT22;2393;50.560;12.636;2023-06-10T12:40:26;26.00;99.90
4759;DHT22;2393;50.560;12.636;2023-06-10T12:42:58;25.80;99.90
4759;DHT22;2393;50.560;12.636;2023-06-10T12:45:26;25.80;99.90
4759;DHT22;2393;50.560;12.636;2023-06-10T12:48:06;25.80;99.90
4759;DHT22;2393;50.560;12.636;2023-06-10T12:50:36;25.90;99.90
4759;DHT22;2393;50.560;12.636;2023-06-10T12:53:06;26.00;99.90
4759;DHT22;2393;50.560;12.636;2023-06-10T12:55:34;26.30;99.90
4759;DHT22;2393;50.560;12.636;2023-06-10T12:58:04;26.40;99.90
4759;DHT22;2393;50.560;12.636;2023-06-10T13:00:32;26.50;99.90
4759;DHT22;2393;50.560;12.636;2023-06-10T13:03:02;26.20;99.90
4759;DHT22;2393;50.560;12.636;2023-06-10T13:05:33;26.10;99.90
4759;DHT22;2393;50.560;12.636;2023-06-10T13:08:02;26.30;99.90
4759;DHT22;2393;50.560;12.636;2023-06-10T13:10:30;26.30;99.90
4759;DHT22;2393;50.560;12.636;2023-06-10T13:12:59;26.10;99.90
4759;DHT22;2393;50.560;12.636;2023-06-10T13:15:28;26.00;99.90
4759;DHT22;2393;50.560;12.636;2023-06-10T13:17:56;26.00;99.90
4759;DHT22;2393;50.560;12.636;2023-06-10T13:20:25;26.00;99.90
4759;DHT22;2393;50.560;12.636;2023-06-10T13:22:53;25.80;99.90
4759;DHT22;2393;50.560;12.636;2023-06-10T13:25:21;25.60;99.90
4759;DHT22;2393;50.560;12.636;2023-06-10T13:27:49;25.50;99.90
4759;DHT22;2393;50.560;12.636;2023-06-10T13:30:17;25.40;99.90
4759;DHT22;2393;50.560;12.636;2023-06-10T13:32:47;25.40;99.90
4759;DHT22;2393;50.560;12.636;2023-06-10T13:35:15;25.40;99.90
4759;DHT22;2393;50.560;12.636;2023-06-10T13:37:44;25.60;99.90
4759;DHT22;2393;50.560;12.636;2023-06-10T13:40:12;25.50;99.90
4759;DHT22;2393;50.560;12.636;2023-06-10T13:42:40;25.50;99.90
4759;DHT22;2393;50.560;12.636;2023-06-10T13:45:09;25.50;99.90
4759;DHT22;2393;50.560;12.636;2023-06-10T13:47:38;25.50;99.90
4759;DHT22;2393;50.560;12.636;2023-06-10T13:50:08;25.30;99.90
4759;DHT22;2393;50.560;12.636;2023-06-10T13:52:37;25.20;99.90
4759;DHT22;2393;50.560;12.636;2023-06-10T13:55:05;25.30;99.90
4759;DHT22;2393;50.560;12.636;2023-06-10T13:57:34;25.30;99.90
4759;DHT22;2393;50.560;12.636;2023-06-10T14:00:02;25.30;99.90
4759;DHT22;2393;50.560;12.636;2023-06-10T14:02:31;25.40;99.90
4759;DHT22;2393;50.560;12.636;2023-06-10T14:04:59;25.30;99.90
4759;DHT22;2393;50.560;12.636;2023-06-10T14:07:29;25.40;99.90
4759;DHT22;2393;50.560;12.636;2023-06-10T14:09:57;25.50;99.90
4759;DHT22;2393;50.560;12.636;2023-06-10T14:12:25;25.50;99.90
4759;DHT22;2393;50.560;12.636;2023-06-10T14:14:53;25.70;99.90
4759;DHT22;2393;50.560;12.636;2023-06-10T14:17:21;25.70;99.90
4759;DHT22;2393;50.560;12.636;2023-06-10T14:19:50;25.60;99.90
4759;DHT22;2393;50.560;12.636;2023-06-10T14:22:18;25.70;99.90
4759;DHT22;2393;50.560;12.636;2023-06-10T14:24:47;25.60;99.90
4759;DHT22;2393;50.560;12.636;2023-06-10T14:27:15;25.60;99.90
4759;DHT22;2393;50.560;12.636;2023-06-10T14:29:43;25.70;99.90
4759;DHT22;2393;50.560;12.636;2023-06-10T14:32:11;25.70;99.90
4759;DHT22;2393;50.560;12.636;2023-06-10T14:34:39;25.60;99.90
4759;DHT22;2393;50.560;12.636;2023-06-10T14:37:08;25.40;99.90
4759;DHT22;2393;50.560;12.636;2023-06-10T14:39:36;25.20;99.90
4759;DHT22;2393;50.560;12.636;2023-06-10T14:42:06;25.00;99.90
4759;DHT22;2393;50.560;12.636;2023-06-10T14:44:34;24.60;99.90
4759;DHT22;2393;50.560;12.636;2023-06-10T14:47:03;24.40;99.90
4759;DHT22;2393;50.560;12.636;2023-06-10T14:49:31;24.30;99.90
4759;DHT22;2393;50.560;12.636;2023-06-10T14:51:59;24.30;99.90
4759;DHT22;2393;50.560;12.636;2023-06-10T14:54:27;24.30;99.90
4759;DHT22;2393;50.560;12.636;2023-06-10T14:56:55;24.40;99.90
4759;DHT22;2393;50.560;12.636;2023-06-10T14:59:24;24.30;99.90
4759;DHT22;2393;50.560;12.636;2023-06-10T15:01:52;24.20;99.90
4759;DHT22;2393;50.560;12.636;2023-06-10T15:04:20;24.10;99.90
4759;DHT22;2393;50.560;12.636;2023-06-10T15:06:50;24.10;99.90
4759;DHT22;2393;50.560;12.636;2023-06-10T15:09:31;24.10;99.90
4759;DHT22;2393;50.560;12.636;2023-06-10T15:11:58;24.00;99.90
4759;DHT22;2393;50.560;12.636;2023-06-10T15:14:28;24.00;99.90
4759;DHT22;2393;50.560;12.636;2023-06-10T15:16:56;24.00;99.90
4759;DHT22;2393;50.560;12.636;2023-06-10T15:19:26;23.90;99.90
4759;DHT22;2393;50.560;12.636;2023-06-10T15:21:54;24.00;99.90
4759;DHT22;2393;50.560;12.636;2023-06-10T15:24:22;24.20;99.90
4759;DHT22;2393;50.560;12.636;2023-06-10T15:26:50;24.40;99.90
4759;DHT22;2393;50.560;12.636;2023-06-10T15:29:18;24.60;99.90
4759;DHT22;2393;50.560;12.636;2023-06-10T15:31:47;24.60;99.90
4759;DHT22;2393;50.560;12.636;2023-06-10T15:34:15;24.50;99.90
4759;DHT22;2393;50.560;12.636;2023-06-10T15:36:43;24.30;99.90
4759;DHT22;2393;50.560;12.636;2023-06-10T15:39:11;24.50;99.90
4759;DHT22;2393;50.560;12.636;2023-06-10T15:41:39;24.60;99.90
4759;DHT22;2393;50.560;12.636;2023-06-10T15:44:07;24.80;99.90
4759;DHT22;2393;50.560;12.636;2023-06-10T15:46:35;25.10;99.90
4759;DHT22;2393;50.560;12.636;2023-06-10T15:49:04;25.40;99.90
4759;DHT22;2393;50.560;12.636;2023-06-10T15:51:32;25.50;99.90
4759;DHT22;2393;50.560;12.636;2023-06-10T15:54:00;25.60;99.90
4759;DHT22;2393;50.560;12.636;2023-06-10T15:56:28;25.60;99.90
4759;DHT22;2393;50.560;12.636;2023-06-10T15:58:56;25.20;99.90
4759;DHT22;2393;50.560;12.636;2023-06-10T16:01:24;25.00;99.90